KHYS

Hays Regional Airport

Hays, Kansas, USA
METAR KHYS 141256Z AUTO 01006KT 10SM OVC006 20/19 A2992 RMK AO2 CIG 003V009 SLP120 T02000189
Observed Flight Rules
Aug-14 @ 12:56 UTC (46 minutes ago) Instrument Flight Rules
Wind Visibility Clouds
10° at 6 knots 10 miles
  • Overcast at 600' AGL
Temperatures Readings
Current 20°C / 68°F
Dewpoint 19°C / 66°F
Humidity 94%
Altimeter 29.92" Hg
Pressure 1012 hPa
Elevation 609
METAR KHYS 141256Z AUTO 01006KT 10SM OVC006 20/19 A2992 RMK AO2 CIG 003V009 SLP120 T02000189
Observed Flight Rules
Aug-14 @ 12:56 UTC
(46 minutes ago)
IFR
Wind Visibility
10° at 6 knots 10 miles
Clouds
  • Overcast at 600' AGL
Temperature Dewpoint
20°C / 68°F 19°C / 66°F
Humidity Altimeter Pressure
94% 29.92" Hg 1012 hPa